sensor_id;sensor_type;location;lat;lon;timestamp;temperature;humidity
20658;DHT22;10488;50.846;4.078;2023-03-01T00:01:53;-0.90;99.90
20658;DHT22;10488;50.846;4.078;2023-03-01T00:04:18;-0.90;99.90
20658;DHT22;10488;50.846;4.078;2023-03-01T00:06:45;-0.90;99.90
20658;DHT22;10488;50.846;4.078;2023-03-01T00:09:13;-0.90;99.90
20658;DHT22;10488;50.846;4.078;2023-03-01T00:11:38;-0.90;99.90
20658;DHT22;10488;50.846;4.078;2023-03-01T00:14:05;-0.90;99.90
20658;DHT22;10488;50.846;4.078;2023-03-01T00:16:34;-1.00;99.90
20658;DHT22;10488;50.846;4.078;2023-03-01T00:19:01;-1.10;99.90
20658;DHT22;10488;50.846;4.078;2023-03-01T00:21:27;-1.10;99.90
20658;DHT22;10488;50.846;4.078;2023-03-01T00:23:54;-1.00;99.90
20658;DHT22;10488;50.846;4.078;2023-03-01T00:26:23;-1.00;99.90
20658;DHT22;10488;50.846;4.078;2023-03-01T00:28:50;-1.00;99.90
20658;DHT22;10488;50.846;4.078;2023-03-01T00:31:19;-1.00;99.90
20658;DHT22;10488;50.846;4.078;2023-03-01T00:33:46;-1.10;99.90
20658;DHT22;10488;50.846;4.078;2023-03-01T00:36:13;-1.20;99.90
20658;DHT22;10488;50.846;4.078;2023-03-01T00:38:41;-1.10;99.90
20658;DHT22;10488;50.846;4.078;2023-03-01T00:41:11;-1.20;99.90
20658;DHT22;10488;50.846;4.078;2023-03-01T00:43:37;-1.30;99.90
20658;DHT22;10488;50.846;4.078;2023-03-01T00:46:05;-1.20;99.90
20658;DHT22;10488;50.846;4.078;2023-03-01T00:48:31;-1.20;99.90
20658;DHT22;10488;50.846;4.078;2023-03-01T00:50:57;-1.30;99.90
20658;DHT22;10488;50.846;4.078;2023-03-01T00:53:29;-1.30;99.90
20658;DHT22;10488;50.846;4.078;2023-03-01T00:55:57;-1.30;99.90
20658;DHT22;10488;50.846;4.078;2023-03-01T00:58:24;-1.30;99.90
20658;DHT22;10488;50.846;4.078;2023-03-01T01:00:51;-1.20;99.90
20658;DHT22;10488;50.846;4.078;2023-03-01T01:03:19;-1.30;99.90
20658;DHT22;10488;50.846;4.078;2023-03-01T01:05:45;-1.30;99.90
20658;DHT22;10488;50.846;4.078;2023-03-01T01:08:11;-1.30;99.90
20658;DHT22;10488;50.846;4.078;2023-03-01T01:10:36;-1.30;99.90
20658;DHT22;10488;50.846;4.078;2023-03-01T01:13:03;-1.30;99.90
20658;DHT22;10488;50.846;4.078;2023-03-01T01:15:28;-1.30;99.90
20658;DHT22;10488;50.846;4.078;2023-03-01T01:17:54;-1.30;99.90
20658;DHT22;10488;50.846;4.078;2023-03-01T01:20:20;-1.30;99.90
20658;DHT22;10488;50.846;4.078;2023-03-01T01:22:47;-1.40;99.90
20658;DHT22;10488;50.846;4.078;2023-03-01T01:25:12;-1.40;99.90
20658;DHT22;10488;50.846;4.078;2023-03-01T01:27:38;-1.50;99.90
20658;DHT22;10488;50.846;4.078;2023-03-01T01:30:04;-1.50;99.90
20658;DHT22;10488;50.846;4.078;2023-03-01T01:32:30;-1.40;99.90
20658;DHT22;10488;50.846;4.078;2023-03-01T01:34:55;-1.50;99.90
20658;DHT22;10488;50.846;4.078;2023-03-01T01:37:21;-1.50;99.90
20658;DHT22;10488;50.846;4.078;2023-03-01T01:39:47;-1.60;99.90
20658;DHT22;10488;50.846;4.078;2023-03-01T01:42:17;-1.60;99.90
20658;DHT22;10488;50.846;4.078;2023-03-01T01:44:47;-1.60;99.90
20658;DHT22;10488;50.846;4.078;2023-03-01T01:47:16;-1.60;99.90
20658;DHT22;10488;50.846;4.078;2023-03-01T01:49:44;-1.70;99.90
20658;DHT22;10488;50.846;4.078;2023-03-01T01:52:27;-1.80;99.90
20658;DHT22;10488;50.846;4.078;2023-03-01T01:55:11;-1.80;99.90
20658;DHT22;10488;50.846;4.078;2023-03-01T01:57:43;-1.70;99.90
20658;DHT22;10488;50.846;4.078;2023-03-01T02:00:16;-1.70;99.90
20658;DHT22;10488;50.846;4.078;2023-03-01T02:02:43;-1.80;99.90
20658;DHT22;10488;50.846;4.078;2023-03-01T02:07:39;-1.70;99.90
20658;DHT22;10488;50.846;4.078;2023-03-01T02:10:06;-1.70;99.90
20658;DHT22;10488;50.846;4.078;2023-03-01T02:12:34;-1.70;99.90
20658;DHT22;10488;50.846;4.078;2023-03-01T02:15:00;-1.70;99.90
20658;DHT22;10488;50.846;4.078;2023-03-01T02:17:27;-1.70;99.90
20658;DHT22;10488;50.846;4.078;2023-03-01T02:20:14;-1.80;99.90
20658;DHT22;10488;50.846;4.078;2023-03-01T02:22:43;-1.80;99.90
20658;DHT22;10488;50.846;4.078;2023-03-01T02:30:28;-1.80;99.90
20658;DHT22;10488;50.846;4.078;2023-03-01T02:32:56;-1.90;99.90
20658;DHT22;10488;50.846;4.078;2023-03-01T02:35:34;-1.90;99.90
20658;DHT22;10488;50.846;4.078;2023-03-01T02:38:01;-1.90;99.90
20658;DHT22;10488;50.846;4.078;2023-03-01T02:40:29;-1.90;99.90
20658;DHT22;10488;50.846;4.078;2023-03-01T02:42:58;-1.90;99.90
20658;DHT22;10488;50.846;4.078;2023-03-01T02:45:24;-1.90;99.90
20658;DHT22;10488;50.846;4.078;2023-03-01T02:47:50;-1.90;99.90
20658;DHT22;10488;50.846;4.078;2023-03-01T02:53:08;-1.90;99.90
20658;DHT22;10488;50.846;4.078;2023-03-01T02:55:36;-2.00;99.90
20658;DHT22;10488;50.846;4.078;2023-03-01T02:58:02;-2.00;99.90
20658;DHT22;10488;50.846;4.078;2023-03-01T03:00:40;-2.00;99.90
20658;DHT22;10488;50.846;4.078;2023-03-01T03:03:13;-2.00;99.90
20658;DHT22;10488;50.846;4.078;2023-03-01T03:05:40;-2.10;99.90
20658;DHT22;10488;50.846;4.078;2023-03-01T03:08:05;-2.00;99.90
20658;DHT22;10488;50.846;4.078;2023-03-01T03:10:36;-2.10;99.90
20658;DHT22;10488;50.846;4.078;2023-03-01T03:13:11;-2.10;99.90
20658;DHT22;10488;50.846;4.078;2023-03-01T03:15:40;-2.10;99.90
20658;DHT22;10488;50.846;4.078;2023-03-01T03:18:09;-2.10;99.90
20658;DHT22;10488;50.846;4.078;2023-03-01T03:20:36;-2.20;99.90
20658;DHT22;10488;50.846;4.078;2023-03-01T03:23:02;-2.20;99.90
20658;DHT22;10488;50.846;4.078;2023-03-01T03:25:28;-2.30;99.90
20658;DHT22;10488;50.846;4.078;2023-03-01T03:27:55;-2.30;99.90
20658;DHT22;10488;50.846;4.078;2023-03-01T03:30:26;-2.20;99.90
20658;DHT22;10488;50.846;4.078;2023-03-01T03:32:52;-2.20;99.90
20658;DHT22;10488;50.846;4.078;2023-03-01T03:37:48;-2.30;99.90
20658;DHT22;10488;50.846;4.078;2023-03-01T03:40:36;-2.30;99.90
20658;DHT22;10488;50.846;4.078;2023-03-01T03:43:03;-2.30;99.90
20658;DHT22;10488;50.846;4.078;2023-03-01T03:45:31;-2.30;99.90
20658;DHT22;10488;50.846;4.078;2023-03-01T03:48:01;-2.30;99.90
20658;DHT22;10488;50.846;4.078;2023-03-01T03:50:27;-2.30;99.90
20658;DHT22;10488;50.846;4.078;2023-03-01T03:52:53;-2.30;99.90
20658;DHT22;10488;50.846;4.078;2023-03-01T03:55:20;-2.40;99.90
20658;DHT22;10488;50.846;4.078;2023-03-01T03:57:47;-2.40;99.90
20658;DHT22;10488;50.846;4.078;2023-03-01T04:00:19;-2.40;99.90
20658;DHT22;10488;50.846;4.078;2023-03-01T04:02:46;-2.30;99.90
20658;DHT22;10488;50.846;4.078;2023-03-01T04:05:14;-2.40;99.90
20658;DHT22;10488;50.846;4.078;2023-03-01T04:07:41;-2.40;99.90
20658;DHT22;10488;50.846;4.078;2023-03-01T04:10:09;-2.40;99.90
20658;DHT22;10488;50.846;4.078;2023-03-01T04:12:36;-2.40;99.90
20658;DHT22;10488;50.846;4.078;2023-03-01T04:15:03;-2.50;99.90
20658;DHT22;10488;50.846;4.078;2023-03-01T04:17:40;-2.40;99.90
20658;DHT22;10488;50.846;4.078;2023-03-01T04:20:08;-2.40;99.90
20658;DHT22;10488;50.846;4.078;2023-03-01T04:22:34;-2.60;99.90
20658;DHT22;10488;50.846;4.078;2023-03-01T04:25:00;-2.60;99.90
20658;DHT22;10488;50.846;4.078;2023-03-01T04:27:35;-2.60;99.90
20658;DHT22;10488;50.846;4.078;2023-03-01T04:30:02;-2.70;99.90
20658;DHT22;10488;50.846;4.078;2023-03-01T04:32:28;-2.60;99.90
20658;DHT22;10488;50.846;4.078;2023-03-01T04:34:55;-2.60;99.90
20658;DHT22;10488;50.846;4.078;2023-03-01T04:37:20;-2.60;99.90
20658;DHT22;10488;50.846;4.078;2023-03-01T04:39:46;-2.60;99.90
20658;DHT22;10488;50.846;4.078;2023-03-01T04:42:13;-2.60;99.90
20658;DHT22;10488;50.846;4.078;2023-03-01T04:44:39;-2.60;99.90
20658;DHT22;10488;50.846;4.078;2023-03-01T04:47:05;-2.60;99.90
20658;DHT22;10488;50.846;4.078;2023-03-01T04:49:31;-2.70;99.90
20658;DHT22;10488;50.846;4.078;2023-03-01T04:51:57;-2.80;99.90
20658;DHT22;10488;50.846;4.078;2023-03-01T04:54:28;-2.80;99.90
20658;DHT22;10488;50.846;4.078;2023-03-01T04:56:55;-2.80;99.90
20658;DHT22;10488;50.846;4.078;2023-03-01T04:59:21;-2.80;99.90
20658;DHT22;10488;50.846;4.078;2023-03-01T05:01:51;-2.80;99.90
20658;DHT22;10488;50.846;4.078;2023-03-01T05:04:18;-2.90;99.90
20658;DHT22;10488;50.846;4.078;2023-03-01T05:06:44;-2.90;99.90
20658;DHT22;10488;50.846;4.078;2023-03-01T05:09:10;-3.00;99.90
20658;DHT22;10488;50.846;4.078;2023-03-01T05:11:37;-2.90;99.90
20658;DHT22;10488;50.846;4.078;2023-03-01T05:14:03;-2.90;99.90
20658;DHT22;10488;50.846;4.078;2023-03-01T05:16:29;-2.90;99.90
20658;DHT22;10488;50.846;4.078;2023-03-01T05:18:56;-2.90;99.90
20658;DHT22;10488;50.846;4.078;2023-03-01T05:21:22;-3.00;99.90
20658;DHT22;10488;50.846;4.078;2023-03-01T05:23:48;-3.00;99.90
20658;DHT22;10488;50.846;4.078;2023-03-01T05:26:15;-3.00;99.90
20658;DHT22;10488;50.846;4.078;2023-03-01T05:28:40;-3.00;99.90
20658;DHT22;10488;50.846;4.078;2023-03-01T05:31:07;-3.00;99.90
20658;DHT22;10488;50.846;4.078;2023-03-01T05:33:38;-3.00;99.90
20658;DHT22;10488;50.846;4.078;2023-03-01T05:36:05;-3.10;99.90
20658;DHT22;10488;50.846;4.078;2023-03-01T05:38:31;-3.10;99.90
20658;DHT22;10488;50.846;4.078;2023-03-01T05:40:57;-3.10;99.90
20658;DHT22;10488;50.846;4.078;2023-03-01T05:43:22;-3.10;99.90
20658;DHT22;10488;50.846;4.078;2023-03-01T05:45:48;-3.20;99.90
20658;DHT22;10488;50.846;4.078;2023-03-01T05:48:14;-3.20;99.90
20658;DHT22;10488;50.846;4.078;2023-03-01T05:50:44;-3.20;99.90
20658;DHT22;10488;50.846;4.078;2023-03-01T05:53:15;-3.20;99.90
20658;DHT22;10488;50.846;4.078;2023-03-01T05:55:42;-3.20;99.90
20658;DHT22;10488;50.846;4.078;2023-03-01T05:58:11;-3.10;99.90
20658;DHT22;10488;50.846;4.078;2023-03-01T06:00:37;-3.20;99.90
20658;DHT22;10488;50.846;4.078;2023-03-01T06:03:03;-3.20;99.90
20658;DHT22;10488;50.846;4.078;2023-03-01T06:05:29;-3.10;99.90
20658;DHT22;10488;50.846;4.078;2023-03-01T06:07:56;-3.10;99.90
20658;DHT22;10488;50.846;4.078;2023-03-01T06:10:24;-3.10;99.90
20658;DHT22;10488;50.846;4.078;2023-03-01T06:12:49;-3.10;99.90
20658;DHT22;10488;50.846;4.078;2023-03-01T06:15:16;-3.20;99.90
20658;DHT22;10488;50.846;4.078;2023-03-01T06:17:44;-3.10;99.90
20658;DHT22;10488;50.846;4.078;2023-03-01T06:20:13;-3.10;99.90
20658;DHT22;10488;50.846;4.078;2023-03-01T06:22:39;-3.20;99.90
20658;DHT22;10488;50.846;4.078;2023-03-01T06:25:05;-3.10;99.90
20658;DHT22;10488;50.846;4.078;2023-03-01T06:27:32;-3.10;99.90
20658;DHT22;10488;50.846;4.078;2023-03-01T06:29:57;-3.10;99.90
20658;DHT22;10488;50.846;4.078;2023-03-01T06:32:23;-3.10;99.90
20658;DHT22;10488;50.846;4.078;2023-03-01T06:34:51;-3.10;99.90
20658;DHT22;10488;50.846;4.078;2023-03-01T06:37:17;-3.00;99.90
20658;DHT22;10488;50.846;4.078;2023-03-01T06:39:42;-3.00;99.90
20658;DHT22;10488;50.846;4.078;2023-03-01T06:42:08;-3.00;99.90
20658;DHT22;10488;50.846;4.078;2023-03-01T06:44:35;-2.90;99.90
20658;DHT22;10488;50.846;4.078;2023-03-01T06:47:01;-2.90;99.90
20658;DHT22;10488;50.846;4.078;2023-03-01T06:49:27;-2.80;99.90
20658;DHT22;10488;50.846;4.078;2023-03-01T06:51:52;-2.80;99.90
20658;DHT22;10488;50.846;4.078;2023-03-01T06:54:18;-2.80;99.90
20658;DHT22;10488;50.846;4.078;2023-03-01T06:56:48;-2.70;99.90
20658;DHT22;10488;50.846;4.078;2023-03-01T06:59:14;-2.70;99.90
20658;DHT22;10488;50.846;4.078;2023-03-01T07:01:39;-2.70;99.90
20658;DHT22;10488;50.846;4.078;2023-03-01T07:04:05;-2.70;99.90
20658;DHT22;10488;50.846;4.078;2023-03-01T07:06:31;-2.60;99.90
20658;DHT22;10488;50.846;4.078;2023-03-01T07:08:56;-2.50;99.90
20658;DHT22;10488;50.846;4.078;2023-03-01T07:11:22;-2.50;99.90
20658;DHT22;10488;50.846;4.078;2023-03-01T07:13:48;-2.40;99.90
20658;DHT22;10488;50.846;4.078;2023-03-01T07:16:14;-2.30;99.90
20658;DHT22;10488;50.846;4.078;2023-03-01T07:18:40;-2.40;99.90
20658;DHT22;10488;50.846;4.078;2023-03-01T07:21:09;-2.20;99.90
20658;DHT22;10488;50.846;4.078;2023-03-01T07:23:36;-2.10;99.90
20658;DHT22;10488;50.846;4.078;2023-03-01T07:26:02;-2.00;99.90
20658;DHT22;10488;50.846;4.078;2023-03-01T07:28:27;-1.70;99.90
20658;DHT22;10488;50.846;4.078;2023-03-01T07:30:53;-1.70;99.90
20658;DHT22;10488;50.846;4.078;2023-03-01T07:33:20;-1.60;99.90
20658;DHT22;10488;50.846;4.078;2023-03-01T07:35:45;-1.30;99.90
20658;DHT22;10488;50.846;4.078;2023-03-01T07:38:11;-0.90;99.90
20658;DHT22;10488;50.846;4.078;2023-03-01T07:40:37;-0.20;99.90
20658;DHT22;10488;50.846;4.078;2023-03-01T07:43:02;0.40;99.90
20658;DHT22;10488;50.846;4.078;2023-03-01T07:45:28;0.90;99.90
20658;DHT22;10488;50.846;4.078;2023-03-01T07:47:55;1.30;99.90
20658;DHT22;10488;50.846;4.078;2023-03-01T07:50:21;1.90;99.90
20658;DHT22;10488;50.846;4.078;2023-03-01T07:52:47;2.30;99.90
20658;DHT22;10488;50.846;4.078;2023-03-01T07:55:14;2.80;99.90
20658;DHT22;10488;50.846;4.078;2023-03-01T07:57:40;3.00;99.90
20658;DHT22;10488;50.846;4.078;2023-03-01T08:00:06;3.40;99.90
20658;DHT22;10488;50.846;4.078;2023-03-01T08:02:32;3.50;99.90
20658;DHT22;10488;50.846;4.078;2023-03-01T08:04:59;3.50;99.90
20658;DHT22;10488;50.846;4.078;2023-03-01T08:07:24;3.20;99.90
20658;DHT22;10488;50.846;4.078;2023-03-01T08:09:50;3.50;99.90
20658;DHT22;10488;50.846;4.078;2023-03-01T08:12:16;3.90;99.90
20658;DHT22;10488;50.846;4.078;2023-03-01T08:14:44;3.90;99.90
20658;DHT22;10488;50.846;4.078;2023-03-01T08:17:09;4.20;99.90
20658;DHT22;10488;50.846;4.078;2023-03-01T08:19:35;4.40;99.90
20658;DHT22;10488;50.846;4.078;2023-03-01T08:22:02;4.40;99.90
20658;DHT22;10488;50.846;4.078;2023-03-01T08:24:27;4.70;99.90
20658;DHT22;10488;50.846;4.078;2023-03-01T08:26:53;4.70;99.90
20658;DHT22;10488;50.846;4.078;2023-03-01T08:29:19;4.50;99.90
20658;DHT22;10488;50.846;4.078;2023-03-01T08:31:45;4.40;99.90
20658;DHT22;10488;50.846;4.078;2023-03-01T08:34:13;4.60;99.90
20658;DHT22;10488;50.846;4.078;2023-03-01T08:36:41;4.20;99.90
20658;DHT22;10488;50.846;4.078;2023-03-01T08:39:08;4.60;99.90
20658;DHT22;10488;50.846;4.078;2023-03-01T08:41:34;4.80;99.90
20658;DHT22;10488;50.846;4.078;2023-03-01T08:44:00;4.60;99.90
20658;DHT22;10488;50.846;4.078;2023-03-01T08:46:37;4.10;99.90
20658;DHT22;10488;50.846;4.078;2023-03-01T08:49:29;3.90;99.90
20658;DHT22;10488;50.846;4.078;2023-03-01T08:51:54;4.50;99.90
20658;DHT22;10488;50.846;4.078;2023-03-01T08:54:21;4.30;99.90
20658;DHT22;10488;50.846;4.078;2023-03-01T08:56:48;4.80;99.90
20658;DHT22;10488;50.846;4.078;2023-03-01T08:59:15;4.60;99.90
20658;DHT22;10488;50.846;4.078;2023-03-01T09:01:41;4.20;99.90
20658;DHT22;10488;50.846;4.078;2023-03-01T09:04:11;4.10;99.90
20658;DHT22;10488;50.846;4.078;2023-03-01T09:06:37;4.30;99.90
20658;DHT22;10488;50.846;4.078;2023-03-01T09:09:04;4.20;99.90
20658;DHT22;10488;50.846;4.078;2023-03-01T09:11:30;4.00;99.90
20658;DHT22;10488;50.846;4.078;2023-03-01T09:13:56;3.70;99.90
20658;DHT22;10488;50.846;4.078;2023-03-01T09:16:22;3.80;99.90
20658;DHT22;10488;50.846;4.078;2023-03-01T09:18:51;3.70;99.90
20658;DHT22;10488;50.846;4.078;2023-03-01T09:21:18;3.70;99.90
20658;DHT22;10488;50.846;4.078;2023-03-01T09:23:46;3.70;99.90
20658;DHT22;10488;50.846;4.078;2023-03-01T09:26:14;3.50;99.90
20658;DHT22;10488;50.846;4.078;2023-03-01T09:28:42;3.60;99.90
20658;DHT22;10488;50.846;4.078;2023-03-01T09:31:08;3.60;99.90
20658;DHT22;10488;50.846;4.078;2023-03-01T09:33:34;3.30;99.90
20658;DHT22;10488;50.846;4.078;2023-03-01T09:36:06;3.50;99.90
20658;DHT22;10488;50.846;4.078;2023-03-01T09:38:33;3.50;99.90
20658;DHT22;10488;50.846;4.078;2023-03-01T09:41:02;3.50;99.90
20658;DHT22;10488;50.846;4.078;2023-03-01T09:43:52;3.70;99.90
20658;DHT22;10488;50.846;4.078;2023-03-01T09:46:21;4.10;99.90
20658;DHT22;10488;50.846;4.078;2023-03-01T09:48:51;4.10;99.90
20658;DHT22;10488;50.846;4.078;2023-03-01T09:51:34;4.20;99.90
20658;DHT22;10488;50.846;4.078;2023-03-01T09:54:04;4.40;99.90
20658;DHT22;10488;50.846;4.078;2023-03-01T09:56:40;4.30;99.90
20658;DHT22;10488;50.846;4.078;2023-03-01T10:01:52;4.30;99.90
20658;DHT22;10488;50.846;4.078;2023-03-01T10:04:48;4.20;99.90
20658;DHT22;10488;50.846;4.078;2023-03-01T10:10:23;4.50;99.90
20658;DHT22;10488;50.846;4.078;2023-03-01T10:12:51;4.30;99.90
20658;DHT22;10488;50.846;4.078;2023-03-01T10:15:22;4.40;99.90
20658;DHT22;10488;50.846;4.078;2023-03-01T10:18:01;4.40;99.90
20658;DHT22;10488;50.846;4.078;2023-03-01T10:21:02;4.50;99.90
20658;DHT22;10488;50.846;4.078;2023-03-01T10:23:31;4.60;99.90
20658;DHT22;10488;50.846;4.078;2023-03-01T10:26:12;4.80;99.90
20658;DHT22;10488;50.846;4.078;2023-03-01T10:31:39;5.00;99.90
20658;DHT22;10488;50.846;4.078;2023-03-01T10:34:33;5.00;99.90
20658;DHT22;10488;50.846;4.078;2023-03-01T10:37:14;4.90;99.90
20658;DHT22;10488;50.846;4.078;2023-03-01T10:39:58;5.00;99.90
20658;DHT22;10488;50.846;4.078;2023-03-01T10:42:31;5.00;99.90
20658;DHT22;10488;50.846;4.078;2023-03-01T10:45:00;5.20;99.90
20658;DHT22;10488;50.846;4.078;2023-03-01T10:47:39;5.30;99.90
20658;DHT22;10488;50.846;4.078;2023-03-01T10:50:09;5.20;99.90
20658;DHT22;10488;50.846;4.078;2023-03-01T10:52:59;5.00;99.90
20658;DHT22;10488;50.846;4.078;2023-03-01T10:55:36;5.10;99.90
20658;DHT22;10488;50.846;4.078;2023-03-01T10:58:18;5.30;99.90
20658;DHT22;10488;50.846;4.078;2023-03-01T11:01:23;5.40;99.90
20658;DHT22;10488;50.846;4.078;2023-03-01T11:04:21;5.50;99.90
20658;DHT22;10488;50.846;4.078;2023-03-01T11:06:58;5.50;99.90
20658;DHT22;10488;50.846;4.078;2023-03-01T11:09:24;5.50;99.90
20658;DHT22;10488;50.846;4.078;2023-03-01T11:11:54;5.60;99.90
20658;DHT22;10488;50.846;4.078;2023-03-01T11:14:26;5.60;99.90
20658;DHT22;10488;50.846;4.078;2023-03-01T11:17:11;5.70;99.90
20658;DHT22;10488;50.846;4.078;2023-03-01T11:19:37;5.80;99.90
20658;DHT22;10488;50.846;4.078;2023-03-01T11:22:10;5.80;99.90
20658;DHT22;10488;50.846;4.078;2023-03-01T11:24:46;5.90;99.90
20658;DHT22;10488;50.846;4.078;2023-03-01T11:27:25;5.90;99.90
20658;DHT22;10488;50.846;4.078;2023-03-01T11:36:00;6.00;99.90
20658;DHT22;10488;50.846;4.078;2023-03-01T11:38:28;5.80;99.90
20658;DHT22;10488;50.846;4.078;2023-03-01T11:41:08;5.90;99.90
20658;DHT22;10488;50.846;4.078;2023-03-01T11:43:52;5.90;99.90
20658;DHT22;10488;50.846;4.078;2023-03-01T11:55:01;6.20;99.90
20658;DHT22;10488;50.846;4.078;2023-03-01T12:03:51;6.20;99.90
20658;DHT22;10488;50.846;4.078;2023-03-01T12:06:39;6.40;99.90
20658;DHT22;10488;50.846;4.078;2023-03-01T12:17:56;6.40;99.90
20658;DHT22;10488;50.846;4.078;2023-03-01T12:20:27;6.40;99.90
20658;DHT22;10488;50.846;4.078;2023-03-01T12:25:41;6.60;99.90
20658;DHT22;10488;50.846;4.078;2023-03-01T12:33:53;6.60;99.90
20658;DHT22;10488;50.846;4.078;2023-03-01T12:36:39;6.80;99.90
20658;DHT22;10488;50.846;4.078;2023-03-01T12:48:10;6.80;99.90
20658;DHT22;10488;50.846;4.078;2023-03-01T12:50:46;6.90;99.90
20658;DHT22;10488;50.846;4.078;2023-03-01T12:53:32;7.00;99.90
20658;DHT22;10488;50.846;4.078;2023-03-01T12:56:02;7.00;99.90
20658;DHT22;10488;50.846;4.078;2023-03-01T12:58:35;7.00;99.90
20658;DHT22;10488;50.846;4.078;2023-03-01T13:13:00;7.30;99.90
20658;DHT22;10488;50.846;4.078;2023-03-01T13:15:33;7.10;99.90
20658;DHT22;10488;50.846;4.078;2023-03-01T13:20:46;7.10;99.90
20658;DHT22;10488;50.846;4.078;2023-03-01T13:46:53;7.60;99.90
20658;DHT22;10488;50.846;4.078;2023-03-01T13:49:22;7.40;99.90
20658;DHT22;10488;50.846;4.078;2023-03-01T13:51:50;7.40;99.90
20658;DHT22;10488;50.846;4.078;2023-03-01T13:54:31;7.20;99.90
20658;DHT22;10488;50.846;4.078;2023-03-01T13:57:00;7.30;99.90
20658;DHT22;10488;50.846;4.078;2023-03-01T13:59:27;7.40;99.90
20658;DHT22;10488;50.846;4.078;2023-03-01T14:01:59;7.40;99.90
20658;DHT22;10488;50.846;4.078;2023-03-01T14:04:32;7.50;99.90
20658;DHT22;10488;50.846;4.078;2023-03-01T14:07:12;7.60;99.90
20658;DHT22;10488;50.846;4.078;2023-03-01T14:09:43;7.70;99.90
20658;DHT22;10488;50.846;4.078;2023-03-01T14:18:12;7.70;99.90
20658;DHT22;10488;50.846;4.078;2023-03-01T14:20:20;7.60;99.90
20658;DHT22;10488;50.846;4.078;2023-03-01T14:22:47;7.60;99.90
20658;DHT22;10488;50.846;4.078;2023-03-01T14:25:26;7.70;99.90
20658;DHT22;10488;50.846;4.078;2023-03-01T14:28:02;7.60;99.90
20658;DHT22;10488;50.846;4.078;2023-03-01T14:30:36;7.60;99.90
20658;DHT22;10488;50.846;4.078;2023-03-01T14:33:05;7.60;99.90
20658;DHT22;10488;50.846;4.078;2023-03-01T14:35:34;7.50;99.90
20658;DHT22;10488;50.846;4.078;2023-03-01T14:38:00;7.50;99.90
20658;DHT22;10488;50.846;4.078;2023-03-01T14:40:35;7.50;99.90
20658;DHT22;10488;50.846;4.078;2023-03-01T14:43:09;7.40;99.90
20658;DHT22;10488;50.846;4.078;2023-03-01T14:45:35;7.50;99.90
20658;DHT22;10488;50.846;4.078;2023-03-01T14:48:03;7.60;99.90
20658;DHT22;10488;50.846;4.078;2023-03-01T14:50:32;7.60;99.90
20658;DHT22;10488;50.846;4.078;2023-03-01T14:53:03;7.70;99.90
20658;DHT22;10488;50.846;4.078;2023-03-01T14:55:33;7.60;99.90
20658;DHT22;10488;50.846;4.078;2023-03-01T14:58:02;7.60;99.90
20658;DHT22;10488;50.846;4.078;2023-03-01T15:00:29;7.50;99.90
20658;DHT22;10488;50.846;4.078;2023-03-01T15:03:01;7.60;99.90
20658;DHT22;10488;50.846;4.078;2023-03-01T15:05:33;7.60;99.90
20658;DHT22;10488;50.846;4.078;2023-03-01T15:07:59;7.60;99.90
20658;DHT22;10488;50.846;4.078;2023-03-01T15:10:31;7.50;99.90
20658;DHT22;10488;50.846;4.078;2023-03-01T15:13:14;7.50;99.90
20658;DHT22;10488;50.846;4.078;2023-03-01T15:15:44;7.50;99.90
20658;DHT22;10488;50.846;4.078;2023-03-01T15:18:25;7.50;99.90
20658;DHT22;10488;50.846;4.078;2023-03-01T15:20:52;7.60;99.90
20658;DHT22;10488;50.846;4.078;2023-03-01T15:23:29;7.60;99.90
20658;DHT22;10488;50.846;4.078;2023-03-01T15:25:56;7.50;99.90
20658;DHT22;10488;50.846;4.078;2023-03-01T15:28:28;7.50;99.90
20658;DHT22;10488;50.846;4.078;2023-03-01T15:31:04;7.70;99.90
20658;DHT22;10488;50.846;4.078;2023-03-01T15:33:37;7.70;99.90
20658;DHT22;10488;50.846;4.078;2023-03-01T15:36:43;7.60;99.90
20658;DHT22;10488;50.846;4.078;2023-03-01T15:39:53;7.60;99.90
20658;DHT22;10488;50.846;4.078;2023-03-01T15:47:51;7.60;99.90
20658;DHT22;10488;50.846;4.078;2023-03-01T15:50:26;7.60;99.90
20658;DHT22;10488;50.846;4.078;2023-03-01T15:52:53;7.40;99.90
20658;DHT22;10488;50.846;4.078;2023-03-01T15:55:23;7.30;99.90
20658;DHT22;10488;50.846;4.078;2023-03-01T15:57:50;7.50;99.90
20658;DHT22;10488;50.846;4.078;2023-03-01T16:00:24;7.50;99.90
20658;DHT22;10488;50.846;4.078;2023-03-01T16:02:49;7.50;99.90
20658;DHT22;10488;50.846;4.078;2023-03-01T16:05:20;7.20;99.90
20658;DHT22;10488;50.846;4.078;2023-03-01T16:07:47;7.20;99.90
20658;DHT22;10488;50.846;4.078;2023-03-01T16:10:12;7.40;99.90
20658;DHT22;10488;50.846;4.078;2023-03-01T16:12:38;7.50;99.90
20658;DHT22;10488;50.846;4.078;2023-03-01T16:15:10;7.40;99.90
20658;DHT22;10488;50.846;4.078;2023-03-01T16:17:37;7.30;99.90
20658;DHT22;10488;50.846;4.078;2023-03-01T16:20:02;7.20;99.90
20658;DHT22;10488;50.846;4.078;2023-03-01T16:22:29;7.30;99.90
20658;DHT22;10488;50.846;4.078;2023-03-01T16:24:55;7.50;99.90
20658;DHT22;10488;50.846;4.078;2023-03-01T16:27:20;7.40;99.90
20658;DHT22;10488;50.846;4.078;2023-03-01T16:29:46;7.20;99.90
20658;DHT22;10488;50.846;4.078;2023-03-01T16:32:11;7.20;99.90
20658;DHT22;10488;50.846;4.078;2023-03-01T16:34:37;7.20;99.90
20658;DHT22;10488;50.846;4.078;2023-03-01T16:37:02;7.10;99.90
20658;DHT22;10488;50.846;4.078;2023-03-01T16:39:28;7.20;99.90
20658;DHT22;10488;50.846;4.078;2023-03-01T16:41:54;6.90;99.90
20658;DHT22;10488;50.846;4.078;2023-03-01T16:44:19;7.00;99.90
20658;DHT22;10488;50.846;4.078;2023-03-01T16:46:45;7.00;99.90
20658;DHT22;10488;50.846;4.078;2023-03-01T16:49:10;7.00;99.90
20658;DHT22;10488;50.846;4.078;2023-03-01T16:51:36;7.00;99.90
20658;DHT22;10488;50.846;4.078;2023-03-01T16:54:02;6.90;99.90
20658;DHT22;10488;50.846;4.078;2023-03-01T16:56:30;6.80;99.90
20658;DHT22;10488;50.846;4.078;2023-03-01T16:58:57;6.60;99.90
20658;DHT22;10488;50.846;4.078;2023-03-01T17:01:23;6.60;99.90
20658;DHT22;10488;50.846;4.078;2023-03-01T17:03:51;6.60;99.90
20658;DHT22;10488;50.846;4.078;2023-03-01T17:06:20;6.50;99.90
20658;DHT22;10488;50.846;4.078;2023-03-01T17:08:46;6.40;99.90
20658;DHT22;10488;50.846;4.078;2023-03-01T17:11:14;6.50;99.90
20658;DHT22;10488;50.846;4.078;2023-03-01T17:13:41;6.40;99.90
20658;DHT22;10488;50.846;4.078;2023-03-01T17:16:09;6.60;99.90
20658;DHT22;10488;50.846;4.078;2023-03-01T17:18:35;6.40;99.90
20658;DHT22;10488;50.846;4.078;2023-03-01T17:21:01;6.30;99.90
20658;DHT22;10488;50.846;4.078;2023-03-01T17:23:28;6.30;99.90
20658;DHT22;10488;50.846;4.078;2023-03-01T17:25:54;6.00;99.90
20658;DHT22;10488;50.846;4.078;2023-03-01T17:28:25;6.00;99.90
20658;DHT22;10488;50.846;4.078;2023-03-01T17:30:51;5.80;99.90
20658;DHT22;10488;50.846;4.078;2023-03-01T17:33:18;5.70;99.90
20658;DHT22;10488;50.846;4.078;2023-03-01T17:35:44;5.60;99.90
20658;DHT22;10488;50.846;4.078;2023-03-01T17:38:12;5.50;99.90
20658;DHT22;10488;50.846;4.078;2023-03-01T17:40:39;5.50;99.90
20658;DHT22;10488;50.846;4.078;2023-03-01T17:43:05;5.50;99.90
20658;DHT22;10488;50.846;4.078;2023-03-01T17:45:30;5.50;99.90
20658;DHT22;10488;50.846;4.078;2023-03-01T17:47:56;5.40;99.90
20658;DHT22;10488;50.846;4.078;2023-03-01T17:50:21;5.30;99.90
20658;DHT22;10488;50.846;4.078;2023-03-01T17:52:47;5.30;99.90